createdAt,value
2017-02-18T00:00:01.361Z,0
2017-02-18T00:01:15.039Z,0
2017-02-18T00:02:28.181Z,0
2017-02-18T00:03:41.959Z,0
2017-02-18T00:04:55.691Z,0
2017-02-18T00:06:09.367Z,0
2017-02-18T00:07:23.043Z,0
2017-02-18T00:08:36.792Z,0
2017-02-18T00:09:50.502Z,0
2017-02-18T00:11:04.211Z,0
2017-02-18T00:12:17.894Z,0
2017-02-18T00:13:31.631Z,0
2017-02-18T00:14:45.379Z,0
2017-02-18T00:15:59.099Z,0
2017-02-18T00:17:12.171Z,0
2017-02-18T00:18:25.906Z,0
2017-02-18T00:19:39.644Z,0
2017-02-18T00:20:53.357Z,0
2017-02-18T00:22:07.058Z,0
2017-02-18T00:23:20.824Z,0
2017-02-18T00:24:34.517Z,0
2017-02-18T00:25:48.230Z,0
2017-02-18T00:27:01.944Z,0
2017-02-18T00:28:15.684Z,0
2017-02-18T00:29:29.417Z,0
2017-02-18T00:30:43.125Z,0
2017-02-18T00:31:56.818Z,0
2017-02-18T00:33:10.559Z,0
2017-02-18T00:34:24.259Z,0
2017-02-18T00:35:37.972Z,0
2017-02-18T00:36:51.711Z,0
2017-02-18T00:38:04.840Z,0
2017-02-18T00:39:18.566Z,0
2017-02-18T00:40:32.296Z,0
2017-02-18T00:41:46.016Z,0
2017-02-18T00:42:59.745Z,0
2017-02-18T00:44:12.854Z,0
2017-02-18T00:45:25.971Z,0
2017-02-18T00:46:39.099Z,0
2017-02-18T00:47:52.792Z,0
2017-02-18T00:49:06.534Z,0
2017-02-18T00:50:20.246Z,0
2017-02-18T00:51:33.930Z,0
2017-02-18T00:52:47.699Z,0
2017-02-18T00:54:01.426Z,0
2017-02-18T00:55:15.156Z,0
2017-02-18T00:56:28.894Z,0
2017-02-18T00:57:42.603Z,0
2017-02-18T00:58:56.319Z,0
2017-02-18T01:00:09.434Z,0
2017-02-18T01:01:23.137Z,0
2017-02-18T01:02:36.230Z,0
2017-02-18T01:03:49.923Z,0
2017-02-18T01:05:03.656Z,0
2017-02-18T01:06:16.767Z,0
2017-02-18T01:07:30.468Z,0
2017-02-18T01:08:44.225Z,0
2017-02-18T01:09:57.964Z,0
2017-02-18T01:11:11.683Z,0
2017-02-18T01:12:25.393Z,0
2017-02-18T01:13:39.091Z,0
2017-02-18T01:14:52.823Z,0
2017-02-18T01:16:06.546Z,0
2017-02-18T01:17:19.618Z,0
2017-02-18T01:18:33.322Z,0
2017-02-18T01:19:47.012Z,0
2017-02-18T01:21:00.743Z,0
2017-02-18T01:22:14.464Z,0
2017-02-18T01:23:28.225Z,0
2017-02-18T01:24:41.965Z,0
2017-02-18T01:25:55.664Z,0
2017-02-18T01:27:09.364Z,0
2017-02-18T01:28:23.112Z,0
2017-02-18T01:29:36.846Z,0
2017-02-18T01:30:49.964Z,0
2017-02-18T01:32:03.611Z,0
2017-02-18T01:33:16.738Z,0
2017-02-18T01:34:30.460Z,0
2017-02-18T01:35:44.241Z,0
2017-02-18T01:36:57.401Z,0
2017-02-18T01:38:11.153Z,0
2017-02-18T01:39:24.869Z,0
2017-02-18T01:40:38.595Z,0
2017-02-18T01:41:52.285Z,0
2017-02-18T01:43:06.305Z,0
2017-02-18T01:44:20.000Z,0
2017-02-18T01:45:33.704Z,0
2017-02-18T01:46:47.427Z,0
2017-02-18T01:48:01.149Z,0
2017-02-18T01:49:14.903Z,0
2017-02-18T01:50:28.656Z,0
2017-02-18T01:51:42.391Z,0
2017-02-18T01:52:56.101Z,0
2017-02-18T01:54:09.825Z,0
2017-02-18T01:55:23.572Z,0
2017-02-18T01:56:37.322Z,0
2017-02-18T01:57:51.065Z,0
2017-02-18T01:59:04.848Z,0
2017-02-18T02:00:17.382Z,0
2017-02-18T02:01:31.157Z,0
2017-02-18T02:02:44.909Z,0
2017-02-18T02:03:58.617Z,0
2017-02-18T02:05:12.328Z,0
2017-02-18T02:06:26.023Z,0
2017-02-18T02:07:39.775Z,0
2017-02-18T02:08:53.505Z,0
2017-02-18T02:10:07.222Z,0
2017-02-18T02:11:20.954Z,0
2017-02-18T02:12:34.723Z,0
2017-02-18T02:13:47.242Z,0
2017-02-18T02:15:00.954Z,0
2017-02-18T02:16:14.673Z,0
2017-02-18T02:17:27.778Z,0
2017-02-18T02:18:41.510Z,0
2017-02-18T02:19:54.629Z,0
2017-02-18T02:21:08.302Z,0
2017-02-18T02:22:21.400Z,0
2017-02-18T02:23:35.174Z,0
2017-02-18T02:24:48.887Z,0
2017-02-18T02:26:02.613Z,0
2017-02-18T02:27:16.325Z,0
2017-02-18T02:28:30.095Z,0
2017-02-18T02:29:43.815Z,0
2017-02-18T02:30:56.922Z,0
2017-02-18T02:32:10.632Z,0
2017-02-18T02:33:24.335Z,0
2017-02-18T02:34:38.032Z,0
2017-02-18T02:35:51.766Z,0
2017-02-18T02:37:05.524Z,0
2017-02-18T02:38:18.019Z,0
2017-02-18T02:39:31.711Z,0
2017-02-18T02:40:45.497Z,0
2017-02-18T02:41:59.253Z,0
2017-02-18T02:43:12.949Z,0
2017-02-18T02:44:26.661Z,0
2017-02-18T02:45:40.363Z,0
2017-02-18T02:46:54.090Z,0
2017-02-18T02:48:07.804Z,0
2017-02-18T02:49:21.512Z,0
2017-02-18T02:50:34.602Z,0
2017-02-18T02:51:48.323Z,0
2017-02-18T02:53:01.440Z,0
2017-02-18T02:54:15.135Z,0
2017-02-18T02:55:28.851Z,0
2017-02-18T02:56:42.594Z,0
2017-02-18T02:57:56.319Z,0
2017-02-18T02:59:10.049Z,0
2017-02-18T03:00:23.752Z,0
2017-02-18T03:01:37.502Z,0
2017-02-18T03:02:51.181Z,0
2017-02-18T03:04:04.942Z,0
2017-02-18T03:05:18.678Z,0
2017-02-18T03:06:31.795Z,0
2017-02-18T03:07:45.549Z,0
2017-02-18T03:08:58.686Z,0
2017-02-18T03:10:12.411Z,0
2017-02-18T03:11:26.159Z,0
2017-02-18T03:12:39.845Z,0
2017-02-18T03:13:53.540Z,0
2017-02-18T03:15:07.234Z,0
2017-02-18T03:16:20.331Z,0
2017-02-18T03:17:34.077Z,0
2017-02-18T03:18:47.831Z,0
2017-02-18T03:20:01.597Z,0
2017-02-18T03:21:15.316Z,0
2017-02-18T03:22:29.033Z,0
2017-02-18T03:23:42.725Z,0
2017-02-18T03:24:55.844Z,0
2017-02-18T03:26:09.570Z,0
2017-02-18T03:27:22.773Z,0
2017-02-18T03:28:36.498Z,0
2017-02-18T03:29:50.237Z,0
2017-02-18T03:31:03.946Z,0
2017-02-18T03:32:17.028Z,0
2017-02-18T03:33:30.707Z,0
2017-02-18T03:34:44.386Z,0
2017-02-18T03:35:57.507Z,0
2017-02-18T03:37:11.225Z,0
2017-02-18T03:38:24.310Z,0
2017-02-18T03:39:38.040Z,0
2017-02-18T03:40:51.201Z,0
2017-02-18T03:42:04.932Z,0
2017-02-18T03:43:18.677Z,0
2017-02-18T03:44:31.812Z,0
2017-02-18T03:45:45.512Z,0
2017-02-18T03:46:58.613Z,0
2017-02-18T03:48:12.333Z,0
2017-02-18T03:49:26.066Z,0
2017-02-18T03:50:39.804Z,0
2017-02-18T03:51:53.501Z,0
2017-02-18T03:53:07.238Z,0
2017-02-18T03:54:20.369Z,0
2017-02-18T03:55:34.089Z,0
2017-02-18T03:56:47.857Z,0
2017-02-18T03:58:01.535Z,0
2017-02-18T03:59:15.269Z,0
2017-02-18T04:00:28.983Z,0
2017-02-18T04:01:42.707Z,0
2017-02-18T04:02:56.414Z,0
2017-02-18T04:04:09.538Z,0
2017-02-18T04:05:23.251Z,0
2017-02-18T04:06:36.980Z,0
2017-02-18T04:07:50.747Z,0
2017-02-18T04:09:04.445Z,0
2017-02-18T04:10:18.132Z,0
2017-02-18T04:11:31.850Z,0
2017-02-18T04:12:45.568Z,0
2017-02-18T04:13:58.656Z,0
2017-02-18T04:15:12.344Z,0
2017-02-18T04:16:26.034Z,0
2017-02-18T04:17:39.726Z,0
2017-02-18T04:18:53.501Z,0
2017-02-18T04:20:06.600Z,0
2017-02-18T04:21:19.703Z,0
2017-02-18T04:22:33.427Z,0
2017-02-18T04:23:47.173Z,0
2017-02-18T04:25:00.898Z,0
2017-02-18T04:26:13.457Z,0
2017-02-18T04:27:27.215Z,0
2017-02-18T04:28:40.909Z,0
2017-02-18T04:29:54.625Z,0
2017-02-18T04:31:08.343Z,0
2017-02-18T04:32:21.448Z,0
2017-02-18T04:33:35.171Z,0
2017-02-18T04:34:48.313Z,0
2017-02-18T04:36:02.104Z,0
2017-02-18T04:37:15.255Z,0
2017-02-18T04:38:28.981Z,0
2017-02-18T04:39:42.687Z,0
2017-02-18T04:40:55.796Z,0
2017-02-18T04:42:08.926Z,0
2017-02-18T04:43:22.654Z,0
2017-02-18T04:44:36.389Z,0
2017-02-18T04:45:50.146Z,0
2017-02-18T04:47:03.269Z,0
2017-02-18T04:48:16.433Z,0
2017-02-18T04:49:30.178Z,0
2017-02-18T04:50:43.865Z,0
2017-02-18T04:51:57.563Z,0
2017-02-18T04:53:11.312Z,0
2017-02-18T04:54:25.048Z,0
2017-02-18T04:55:38.196Z,0
2017-02-18T04:56:51.941Z,0
2017-02-18T04:58:05.650Z,0
2017-02-18T04:59:19.344Z,0
2017-02-18T05:00:33.055Z,0
2017-02-18T05:01:46.782Z,0
2017-02-18T05:03:00.529Z,0
2017-02-18T05:04:14.209Z,0
2017-02-18T05:05:27.958Z,0
2017-02-18T05:06:41.736Z,0
2017-02-18T05:07:55.441Z,0
2017-02-18T05:09:09.180Z,0
2017-02-18T05:10:22.925Z,0
2017-02-18T05:11:36.619Z,0
2017-02-18T05:12:50.318Z,0
2017-02-18T05:14:04.026Z,0
2017-02-18T05:15:17.801Z,0
2017-02-18T05:16:31.524Z,0
2017-02-18T05:17:45.254Z,0
2017-02-18T05:18:59.003Z,0
2017-02-18T05:20:12.128Z,0
2017-02-18T05:21:25.862Z,0
2017-02-18T05:22:39.552Z,0
2017-02-18T05:23:53.287Z,0
2017-02-18T05:25:06.400Z,0
2017-02-18T05:26:19.518Z,0
2017-02-18T05:27:33.266Z,0
2017-02-18T05:28:46.969Z,0
2017-02-18T05:30:00.126Z,0
2017-02-18T05:31:12.692Z,0
2017-02-18T05:32:26.462Z,0
2017-02-18T05:33:40.194Z,0
2017-02-18T05:34:53.926Z,0
2017-02-18T05:36:07.009Z,0
2017-02-18T05:37:20.674Z,0
2017-02-18T05:38:34.449Z,0
2017-02-18T05:39:48.145Z,0
2017-02-18T05:41:01.890Z,0
2017-02-18T05:42:14.989Z,0
2017-02-18T05:43:28.688Z,0
2017-02-18T05:44:42.435Z,0
2017-02-18T05:45:55.614Z,0
2017-02-18T05:47:09.365Z,0
2017-02-18T05:48:22.486Z,0
2017-02-18T05:49:35.597Z,0
2017-02-18T05:50:49.294Z,0
2017-02-18T05:52:03.014Z,0
2017-02-18T05:53:16.138Z,0
2017-02-18T05:54:29.839Z,0
2017-02-18T05:55:43.611Z,0
2017-02-18T05:56:56.718Z,0
2017-02-18T05:58:10.434Z,0
2017-02-18T05:59:24.175Z,0
2017-02-18T06:00:37.935Z,0
2017-02-18T06:01:51.023Z,0
2017-02-18T06:03:04.758Z,0
2017-02-18T06:04:17.909Z,0
2017-02-18T06:05:31.597Z,0
2017-02-18T06:06:45.302Z,0
2017-02-18T06:07:59.043Z,0
2017-02-18T06:09:12.724Z,0
2017-02-18T06:10:25.837Z,0
2017-02-18T06:11:39.555Z,0
2017-02-18T06:12:53.291Z,0
2017-02-18T06:14:06.377Z,0
2017-02-18T06:15:20.141Z,0
2017-02-18T06:16:33.827Z,0
2017-02-18T06:17:47.523Z,0
2017-02-18T06:19:01.244Z,0
2017-02-18T06:20:15.019Z,0
2017-02-18T06:21:28.767Z,0
2017-02-18T06:22:42.465Z,0
2017-02-18T06:23:56.217Z,0
2017-02-18T06:25:09.911Z,0
2017-02-18T06:26:23.638Z,0
2017-02-18T06:27:37.390Z,0
2017-02-18T06:28:51.111Z,0
2017-02-18T06:30:04.817Z,0
2017-02-18T06:31:17.977Z,0
2017-02-18T06:32:31.712Z,0
2017-02-18T06:33:45.451Z,0
2017-02-18T06:34:59.487Z,0
2017-02-18T06:36:13.187Z,0
2017-02-18T06:37:26.903Z,0
2017-02-18T06:38:40.649Z,0
2017-02-18T06:39:54.336Z,0
2017-02-18T06:41:08.064Z,0
2017-02-18T06:42:21.196Z,0
2017-02-18T06:43:34.937Z,0
2017-02-18T06:44:48.662Z,0
2017-02-18T06:46:02.367Z,0
2017-02-18T06:47:15.473Z,0
2017-02-18T06:48:29.223Z,0
2017-02-18T06:49:42.936Z,0
2017-02-18T06:50:56.685Z,0
2017-02-18T06:52:10.388Z,0
2017-02-18T06:53:24.086Z,0
2017-02-18T06:54:37.158Z,0
2017-02-18T06:55:50.842Z,0
2017-02-18T06:57:03.957Z,0
2017-02-18T06:58:17.659Z,0
2017-02-18T06:59:31.379Z,0
2017-02-18T07:00:44.558Z,0
2017-02-18T07:01:58.331Z,0
2017-02-18T07:03:12.034Z,0
2017-02-18T07:04:25.761Z,0
2017-02-18T07:05:38.877Z,0
2017-02-18T07:06:52.573Z,0
2017-02-18T07:08:05.851Z,0
2017-02-18T07:09:19.552Z,0
2017-02-18T07:10:32.670Z,0
2017-02-18T07:11:46.441Z,0
2017-02-18T07:13:00.183Z,0
2017-02-18T07:14:14.015Z,0
2017-02-18T07:15:27.767Z,0
2017-02-18T07:16:41.439Z,0
2017-02-18T07:17:54.539Z,0
2017-02-18T07:19:08.241Z,0
2017-02-18T07:20:21.362Z,0
2017-02-18T07:21:35.122Z,0
2017-02-18T07:22:48.862Z,0
2017-02-18T07:24:01.983Z,0
2017-02-18T07:25:15.712Z,0
2017-02-18T07:26:29.424Z,0
2017-02-18T07:27:43.168Z,0
2017-02-18T07:28:55.703Z,0
2017-02-18T07:30:09.398Z,0
2017-02-18T07:31:22.514Z,0
2017-02-18T07:32:36.225Z,0
2017-02-18T07:33:49.981Z,0
2017-02-18T07:35:03.132Z,0
2017-02-18T07:36:16.828Z,0
2017-02-18T07:37:30.518Z,0
2017-02-18T07:38:44.213Z,0
2017-02-18T07:39:57.916Z,0
2017-02-18T07:41:11.661Z,0
2017-02-18T07:42:25.358Z,0
2017-02-18T07:43:39.085Z,0
2017-02-18T07:44:52.808Z,0
2017-02-18T07:46:06.542Z,0
2017-02-18T07:47:20.484Z,0
2017-02-18T07:48:34.213Z,0
2017-02-18T07:49:47.924Z,0
2017-02-18T07:51:01.648Z,0
2017-02-18T07:52:14.747Z,0
2017-02-18T07:53:28.467Z,0
2017-02-18T07:54:42.161Z,0
2017-02-18T07:55:55.848Z,0
2017-02-18T07:57:08.981Z,0
2017-02-18T07:58:21.519Z,0
2017-02-18T07:59:35.221Z,0
2017-02-18T08:00:48.945Z,0
2017-02-18T08:02:02.675Z,0
2017-02-18T08:03:16.417Z,0
2017-02-18T08:04:30.123Z,0
2017-02-18T08:05:43.848Z,0
2017-02-18T08:06:57.621Z,0
2017-02-18T08:08:10.729Z,0
2017-02-18T08:09:23.826Z,0
2017-02-18T08:10:37.016Z,0
2017-02-18T08:11:50.178Z,0
2017-02-18T08:13:03.851Z,0
2017-02-18T08:14:16.975Z,0
2017-02-18T08:15:30.690Z,0
2017-02-18T08:16:44.401Z,0
2017-02-18T08:17:58.109Z,0
2017-02-18T08:19:11.805Z,0
2017-02-18T08:20:25.518Z,0
2017-02-18T08:21:38.633Z,0
2017-02-18T08:22:52.333Z,0
2017-02-18T08:24:06.077Z,0
2017-02-18T08:25:19.842Z,0
2017-02-18T08:26:33.564Z,0
2017-02-18T08:27:47.316Z,0
2017-02-18T08:29:00.443Z,0
2017-02-18T08:30:13.579Z,0
2017-02-18T08:31:27.290Z,0
2017-02-18T08:32:41.028Z,0
2017-02-18T08:33:54.711Z,0
2017-02-18T08:35:07.819Z,0
2017-02-18T08:36:20.901Z,0
2017-02-18T08:37:34.623Z,0
2017-02-18T08:38:48.352Z,0
2017-02-18T08:40:02.078Z,0
2017-02-18T08:41:15.811Z,0
2017-02-18T08:42:29.555Z,0
2017-02-18T08:43:43.241Z,0
2017-02-18T08:44:56.345Z,0
2017-02-18T08:46:08.875Z,5
2017-02-18T08:47:22.616Z,5
2017-02-18T08:48:35.739Z,5
2017-02-18T08:49:49.466Z,10
2017-02-18T08:51:02.609Z,10
2017-02-18T08:52:15.806Z,15
2017-02-18T08:53:29.513Z,15
2017-02-18T08:54:43.266Z,20
2017-02-18T08:55:56.992Z,25
2017-02-18T08:57:09.481Z,30
2017-02-18T08:58:23.178Z,35
2017-02-18T08:59:36.946Z,40
2017-02-18T09:00:50.744Z,45
2017-02-18T09:02:04.465Z,50
2017-02-18T09:03:18.157Z,55
2017-02-18T09:04:31.947Z,65
2017-02-18T09:05:45.117Z,70
2017-02-18T09:06:58.877Z,85
2017-02-18T09:08:12.006Z,90
2017-02-18T09:09:24.543Z,105
2017-02-18T09:10:38.288Z,115
2017-02-18T09:11:51.986Z,130
2017-02-18T09:13:05.669Z,145
2017-02-18T09:14:19.373Z,160
2017-02-18T09:15:33.077Z,175
2017-02-18T09:16:46.282Z,190
2017-02-18T09:18:00.003Z,205
2017-02-18T09:19:13.113Z,220
2017-02-18T09:20:26.261Z,240
2017-02-18T09:21:39.404Z,255
2017-02-18T09:22:53.162Z,265
2017-02-18T09:24:06.842Z,285
2017-02-18T09:25:19.993Z,305
2017-02-18T09:26:33.713Z,310
2017-02-18T09:27:47.432Z,325
2017-02-18T09:29:01.135Z,360
2017-02-18T09:30:14.858Z,385
2017-02-18T09:31:28.585Z,380
2017-02-18T09:32:42.323Z,405
2017-02-18T09:33:56.069Z,445
2017-02-18T09:35:09.190Z,490
2017-02-18T09:36:22.902Z,510
2017-02-18T09:37:36.617Z,530
2017-02-18T09:38:50.342Z,550
2017-02-18T09:40:04.048Z,585
2017-02-18T09:41:17.135Z,600
2017-02-18T09:42:30.853Z,630
2017-02-18T09:43:44.574Z,640
2017-02-18T09:44:58.277Z,645
2017-02-18T09:46:11.992Z,655
2017-02-18T09:47:25.714Z,700
2017-02-18T09:48:39.450Z,735
2017-02-18T09:49:53.192Z,750
2017-02-18T09:51:06.896Z,755
2017-02-18T09:52:20.050Z,765
2017-02-18T09:53:33.786Z,770
2017-02-18T09:54:47.505Z,820
2017-02-18T09:56:01.238Z,860
2017-02-18T09:57:14.994Z,875
2017-02-18T09:58:28.674Z,900
2017-02-18T09:59:42.439Z,925
2017-02-18T10:00:56.139Z,940
2017-02-18T10:02:09.239Z,990
2017-02-18T10:03:22.326Z,1025
2017-02-18T10:04:36.021Z,1065
2017-02-18T10:05:49.743Z,1095
2017-02-18T10:07:03.527Z,1130
2017-02-18T10:08:17.281Z,1170
2017-02-18T10:09:31.051Z,1185
2017-02-18T10:10:44.774Z,1155
2017-02-18T10:11:58.542Z,1190
2017-02-18T10:13:11.636Z,1215
2017-02-18T10:14:25.366Z,1275
2017-02-18T10:15:39.091Z,1310
2017-02-18T10:16:52.986Z,1345
2017-02-18T10:18:06.729Z,1385
2017-02-18T10:19:20.452Z,1415
2017-02-18T10:20:34.194Z,1425
2017-02-18T10:21:47.875Z,1420
2017-02-18T10:23:00.984Z,1425
2017-02-18T10:24:14.087Z,1465
2017-02-18T10:25:27.812Z,1485
2017-02-18T10:26:41.562Z,1505
2017-02-18T10:27:54.758Z,1525
2017-02-18T10:29:08.501Z,1560
2017-02-18T10:30:21.614Z,1575
2017-02-18T10:31:35.348Z,1615
2017-02-18T10:32:49.010Z,1685
2017-02-18T10:34:02.831Z,1725
2017-02-18T10:35:16.573Z,1675
2017-02-18T10:36:30.295Z,1635
2017-02-18T10:37:43.998Z,1570
2017-02-18T10:38:57.077Z,1570
2017-02-18T10:40:10.183Z,1685
2017-02-18T10:41:23.327Z,1790
2017-02-18T10:42:37.100Z,1665
2017-02-18T10:43:50.815Z,1505
2017-02-18T10:45:04.530Z,1535
2017-02-18T10:46:18.250Z,1715
2017-02-18T10:47:31.957Z,1495
2017-02-18T10:48:45.089Z,1360
2017-02-18T10:49:58.841Z,1430
2017-02-18T10:51:12.549Z,1500
2017-02-18T10:52:25.664Z,1720
2017-02-18T10:53:39.394Z,2060
2017-02-18T10:54:53.156Z,2165
2017-02-18T10:56:06.907Z,2205
2017-02-18T10:57:20.038Z,2050
2017-02-18T10:58:33.765Z,1880
2017-02-18T10:59:47.543Z,1970
2017-02-18T11:01:01.249Z,2055
2017-02-18T11:02:14.953Z,2005
2017-02-18T11:03:28.658Z,1880
2017-02-18T11:04:42.392Z,1885
2017-02-18T11:05:56.110Z,1880
2017-02-18T11:07:09.786Z,1995
2017-02-18T11:08:23.476Z,1950
2017-02-18T11:09:37.189Z,1870
2017-02-18T11:10:50.351Z,1645
2017-02-18T11:12:04.045Z,1705
2017-02-18T11:13:17.768Z,1550
2017-02-18T11:14:31.491Z,1410
2017-02-18T11:15:45.191Z,1360
2017-02-18T11:16:58.914Z,1355
2017-02-18T11:18:12.650Z,1375
2017-02-18T11:19:26.367Z,1530
2017-02-18T11:20:40.095Z,1630
2017-02-18T11:21:53.225Z,1645
2017-02-18T11:23:06.930Z,1840
2017-02-18T11:24:20.700Z,2305
2017-02-18T11:25:34.421Z,2425
2017-02-18T11:26:48.175Z,2390
2017-02-18T11:28:01.932Z,2450
2017-02-18T11:29:15.681Z,2395
2017-02-18T11:30:29.384Z,2080
2017-02-18T11:31:43.147Z,2410
2017-02-18T11:32:55.683Z,2280
2017-02-18T11:34:09.412Z,2085
2017-02-18T11:35:23.136Z,1930
2017-02-18T11:36:36.896Z,2245
2017-02-18T11:37:50.656Z,2330
2017-02-18T11:39:04.369Z,2375
2017-02-18T11:40:17.465Z,2625
2017-02-18T11:41:31.196Z,2670
2017-02-18T11:42:44.969Z,2530
2017-02-18T11:43:58.740Z,2565
2017-02-18T11:45:12.490Z,2580
2017-02-18T11:46:26.247Z,2735
2017-02-18T11:47:38.762Z,2755
2017-02-18T11:48:52.467Z,2705
2017-02-18T11:50:06.191Z,2685
2017-02-18T11:51:19.311Z,2585
2017-02-18T11:52:33.017Z,2650
2017-02-18T11:53:46.705Z,2715
2017-02-18T11:55:00.418Z,2740
2017-02-18T11:56:14.186Z,2700
2017-02-18T11:57:27.946Z,2670
2017-02-18T11:58:41.047Z,2800
2017-02-18T11:59:54.196Z,2890
2017-02-18T12:01:07.324Z,2900
2017-02-18T12:02:21.012Z,2855
2017-02-18T12:03:34.144Z,2830
2017-02-18T12:04:47.886Z,2795
2017-02-18T12:06:01.607Z,2975
2017-02-18T12:07:15.346Z,3215
2017-02-18T12:08:29.121Z,3190
2017-02-18T12:09:42.859Z,3170
2017-02-18T12:10:56.582Z,3175
2017-02-18T12:12:10.276Z,3140
2017-02-18T12:13:23.407Z,3050
2017-02-18T12:14:37.107Z,3075
2017-02-18T12:15:50.856Z,3020
2017-02-18T12:17:04.577Z,3010
2017-02-18T12:18:17.728Z,2915
2017-02-18T12:19:31.461Z,3085
2017-02-18T12:20:45.183Z,2960
2017-02-18T12:21:58.904Z,2785
2017-02-18T12:23:12.007Z,2810
2017-02-18T12:24:25.751Z,3060
2017-02-18T12:25:39.486Z,3030
2017-02-18T12:26:53.201Z,3090
2017-02-18T12:28:06.889Z,3030
2017-02-18T12:29:20.646Z,2495
2017-02-18T12:30:34.401Z,2835
2017-02-18T12:31:48.115Z,2945
2017-02-18T12:33:01.864Z,2835
2017-02-18T12:34:14.990Z,3120
2017-02-18T12:35:28.700Z,3250
2017-02-18T12:36:42.437Z,3205
2017-02-18T12:37:56.198Z,3315
2017-02-18T12:39:09.973Z,3150
2017-02-18T12:40:23.696Z,3305
2017-02-18T12:41:37.485Z,3345
2017-02-18T12:42:51.209Z,3310
2017-02-18T12:44:04.939Z,3410
2017-02-18T12:45:18.650Z,2830
2017-02-18T12:46:32.391Z,2765
2017-02-18T12:47:46.125Z,2975
2017-02-18T12:48:59.876Z,3250
2017-02-18T12:50:13.664Z,3660
2017-02-18T12:51:27.480Z,3565
2017-02-18T12:52:41.179Z,3665
2017-02-18T12:53:54.935Z,3640
2017-02-18T12:55:08.101Z,3450
2017-02-18T12:56:20.662Z,3500
2017-02-18T12:57:34.374Z,3435
2017-02-18T12:58:48.110Z,3500
2017-02-18T13:00:01.829Z,3440
2017-02-18T13:01:15.566Z,3300
2017-02-18T13:02:28.762Z,3255
2017-02-18T13:03:42.496Z,3280
2017-02-18T13:04:56.260Z,3285
2017-02-18T13:06:10.002Z,3615
2017-02-18T13:07:23.752Z,3505
2017-02-18T13:08:36.865Z,3780
2017-02-18T13:09:50.651Z,3705
2017-02-18T13:11:04.416Z,3705
2017-02-18T13:12:17.544Z,3605
2017-02-18T13:13:31.284Z,3465
2017-02-18T13:14:45.009Z,3830
2017-02-18T13:15:58.171Z,3695
2017-02-18T13:17:11.888Z,3620
2017-02-18T13:18:25.617Z,3785
2017-02-18T13:19:39.327Z,3635
2017-02-18T13:20:52.520Z,3555
2017-02-18T13:22:05.643Z,3855
2017-02-18T13:23:18.771Z,3800
2017-02-18T13:24:32.502Z,3945
2017-02-18T13:25:46.225Z,3865
2017-02-18T13:26:59.971Z,3465
2017-02-18T13:28:13.712Z,3745
2017-02-18T13:29:26.811Z,3715
2017-02-18T13:30:40.559Z,3100
2017-02-18T13:31:54.267Z,3730
2017-02-18T13:33:08.027Z,4020
2017-02-18T13:34:21.759Z,4065
2017-02-18T13:35:35.454Z,3990
2017-02-18T13:36:48.599Z,4095
2017-02-18T13:38:02.381Z,3910
2017-02-18T13:39:16.135Z,4135
2017-02-18T13:40:29.889Z,3955
2017-02-18T13:41:43.662Z,3930
2017-02-18T13:42:57.417Z,3980
2017-02-18T13:44:10.566Z,4025
2017-02-18T13:45:24.332Z,4080
2017-02-18T13:46:38.071Z,3730
2017-02-18T13:47:51.794Z,3865
2017-02-18T13:49:05.610Z,4110
2017-02-18T13:50:18.101Z,4260
2017-02-18T13:51:31.276Z,4155
2017-02-18T13:52:45.020Z,4115
2017-02-18T13:53:58.200Z,3750
2017-02-18T13:55:10.770Z,4135
2017-02-18T13:56:24.513Z,4575
2017-02-18T13:57:38.245Z,4120
2017-02-18T13:58:51.417Z,3130
2017-02-18T14:00:05.156Z,3835
2017-02-18T14:01:17.743Z,3840
2017-02-18T14:02:31.490Z,4470
2017-02-18T14:03:45.202Z,4505
2017-02-18T14:04:58.913Z,4550
2017-02-18T14:06:12.027Z,4500
2017-02-18T14:07:25.219Z,4375
2017-02-18T14:08:38.968Z,4470
2017-02-18T14:09:52.681Z,4270
2017-02-18T14:11:06.410Z,4365
2017-02-18T14:12:18.899Z,4530
2017-02-18T14:13:32.641Z,4330
2017-02-18T14:14:45.791Z,4230
2017-02-18T14:15:59.514Z,4230
2017-02-18T14:17:13.270Z,4365
2017-02-18T14:18:26.414Z,4060
2017-02-18T14:19:40.146Z,4400
2017-02-18T14:20:53.898Z,4155
2017-02-18T14:22:07.609Z,3955
2017-02-18T14:23:21.323Z,4425
2017-02-18T14:24:35.062Z,4600
2017-02-18T14:25:48.805Z,4495
2017-02-18T14:27:02.541Z,4365
2017-02-18T14:28:15.669Z,4285
2017-02-18T14:29:28.812Z,3740
2017-02-18T14:30:42.538Z,3820
2017-02-18T14:31:56.273Z,4300
2017-02-18T14:33:10.023Z,4600
2017-02-18T14:34:23.123Z,4390
2017-02-18T14:35:36.841Z,4490
2017-02-18T14:36:50.533Z,4640
2017-02-18T14:38:03.665Z,4295
2017-02-18T14:39:16.799Z,4380
2017-02-18T14:40:30.524Z,4275
2017-02-18T14:41:44.300Z,4135
2017-02-18T14:42:57.992Z,4225
2017-02-18T14:44:11.763Z,4480
2017-02-18T14:45:24.926Z,4245
2017-02-18T14:46:38.651Z,4470
2017-02-18T14:47:52.414Z,4585
2017-02-18T14:49:05.577Z,4360
2017-02-18T14:50:19.357Z,4375
2017-02-18T14:51:32.470Z,4310
2017-02-18T14:52:46.193Z,4225
2017-02-18T14:53:59.997Z,3855
2017-02-18T14:55:13.149Z,4230
2017-02-18T14:56:26.901Z,4705
2017-02-18T14:57:40.078Z,4405
2017-02-18T14:58:53.770Z,4255
2017-02-18T15:00:07.542Z,4395
2017-02-18T15:01:20.708Z,4070
2017-02-18T15:02:34.450Z,4375
2017-02-18T15:03:48.194Z,4560
2017-02-18T15:05:01.966Z,4640
2017-02-18T15:06:15.084Z,4595
2017-02-18T15:07:28.794Z,4455
2017-02-18T15:08:42.522Z,4025
2017-02-18T15:09:56.278Z,3100
2017-02-18T15:11:09.426Z,3945
2017-02-18T15:12:22.563Z,4510
2017-02-18T15:13:36.303Z,4645
2017-02-18T15:14:50.051Z,4700
2017-02-18T15:16:02.584Z,4515
2017-02-18T15:17:16.350Z,4085
2017-02-18T15:18:30.137Z,4300
2017-02-18T15:19:43.311Z,4565
2017-02-18T15:20:57.124Z,4730
2017-02-18T15:22:10.277Z,3705
2017-02-18T15:23:24.023Z,3765
2017-02-18T15:24:37.745Z,3970
2017-02-18T15:25:51.513Z,3425
2017-02-18T15:27:05.230Z,4030
2017-02-18T15:28:18.999Z,3640
2017-02-18T15:29:32.719Z,3650
2017-02-18T15:30:46.546Z,3805
2017-02-18T15:31:59.674Z,3795
2017-02-18T15:33:12.854Z,3860
2017-02-18T15:34:26.581Z,3660
2017-02-18T15:35:40.323Z,3645
2017-02-18T15:36:54.054Z,3535
2017-02-18T15:38:07.829Z,3575
2017-02-18T15:39:20.366Z,3530
2017-02-18T15:40:34.116Z,3340
2017-02-18T15:41:47.836Z,3500
2017-02-18T15:43:00.960Z,3195
2017-02-18T15:44:13.532Z,3215
2017-02-18T15:45:26.667Z,3485
2017-02-18T15:46:40.421Z,3290
2017-02-18T15:47:54.113Z,3325
2017-02-18T15:49:06.701Z,3415
2017-02-18T15:50:19.863Z,3410
2017-02-18T15:51:33.555Z,3365
2017-02-18T15:52:47.247Z,3560
2017-02-18T15:54:00.980Z,3760
2017-02-18T15:55:13.516Z,3480
2017-02-18T15:56:27.244Z,4010
2017-02-18T15:57:40.982Z,4065
2017-02-18T15:58:54.751Z,4065
2017-02-18T16:00:08.474Z,4445
2017-02-18T16:01:21.607Z,4335
2017-02-18T16:02:35.284Z,4485
2017-02-18T16:03:49.053Z,4405
2017-02-18T16:05:02.799Z,4215
2017-02-18T16:06:15.351Z,2865
2017-02-18T16:07:29.111Z,3500
2017-02-18T16:08:42.830Z,3505
2017-02-18T16:09:56.536Z,3560
2017-02-18T16:11:10.245Z,3620
2017-02-18T16:12:23.432Z,3725
2017-02-18T16:13:37.189Z,3645
2017-02-18T16:14:50.912Z,3655
2017-02-18T16:16:04.624Z,3960
2017-02-18T16:17:18.387Z,4065
2017-02-18T16:18:31.512Z,3935
2017-02-18T16:19:44.655Z,4115
2017-02-18T16:20:58.406Z,3810
2017-02-18T16:22:11.582Z,4215
2017-02-18T16:23:25.295Z,3705
2017-02-18T16:24:39.044Z,4100
2017-02-18T16:25:52.787Z,3920
2017-02-18T16:27:06.490Z,3715
2017-02-18T16:28:20.235Z,3465
2017-02-18T16:29:33.378Z,3440
2017-02-18T16:30:47.089Z,3130
2017-02-18T16:32:00.896Z,2915
2017-02-18T16:33:14.610Z,2805
2017-02-18T16:34:28.308Z,2775
2017-02-18T16:35:42.060Z,2680
2017-02-18T16:36:55.203Z,2520
2017-02-18T16:38:07.737Z,2495
2017-02-18T16:39:20.886Z,2685
2017-02-18T16:40:34.017Z,2765
2017-02-18T16:41:47.694Z,2935
2017-02-18T16:43:01.447Z,3075
2017-02-18T16:44:15.177Z,3625
2017-02-18T16:45:28.331Z,3965
2017-02-18T16:46:41.527Z,4580
2017-02-18T16:47:55.277Z,4230
2017-02-18T16:49:09.100Z,3980
2017-02-18T16:50:22.866Z,3950
2017-02-18T16:51:36.589Z,4450
2017-02-18T16:52:50.314Z,4270
2017-02-18T16:54:04.044Z,4030
2017-02-18T16:55:17.803Z,3885
2017-02-18T16:56:30.939Z,4050
2017-02-18T16:57:44.676Z,3955
2017-02-18T16:58:58.403Z,910
2017-02-18T17:00:11.530Z,3750
2017-02-18T17:01:25.340Z,960
2017-02-18T17:02:39.053Z,895
2017-02-18T17:03:52.792Z,935
2017-02-18T17:05:06.536Z,965
2017-02-18T17:06:20.268Z,985
2017-02-18T17:07:34.025Z,980
2017-02-18T17:08:47.761Z,1000
2017-02-18T17:10:01.491Z,1115
2017-02-18T17:11:15.191Z,2285
2017-02-18T17:12:27.732Z,3815
2017-02-18T17:13:41.501Z,1255
2017-02-18T17:14:54.637Z,1175